createdAt,value
2022-12-14T00:02:02.822Z,19.27
2022-12-14T00:04:31.228Z,25.15
2022-12-14T00:06:59.672Z,22.02
2022-12-14T00:09:27.853Z,20.15
2022-12-14T00:11:56.043Z,21.83
2022-12-14T00:14:25.708Z,18.67
2022-12-14T00:16:54.013Z,19.33
2022-12-14T00:19:22.323Z,18.55
2022-12-14T00:21:50.609Z,18.10
2022-12-14T00:24:20.545Z,16.63
2022-12-14T00:26:48.742Z,16.33
2022-12-14T00:29:16.914Z,12.35
2022-12-14T00:31:48.792Z,16.65
2022-12-14T00:34:17.736Z,15.20
2022-12-14T00:36:46.352Z,20.30
2022-12-14T00:39:14.639Z,16.63
2022-12-14T00:41:43.310Z,16.30
2022-12-14T00:44:11.516Z,13.27
2022-12-14T00:46:39.760Z,16.30
2022-12-14T00:49:09.338Z,16.17
2022-12-14T00:51:37.574Z,16.27
2022-12-14T00:54:06.266Z,14.23
2022-12-14T00:56:34.548Z,11.70
2022-12-14T00:59:02.741Z,16.08
2022-12-14T01:01:31.649Z,15.90
2022-12-14T01:04:13.927Z,14.50
2022-12-14T01:06:43.618Z,12.40
2022-12-14T01:09:11.889Z,15.88
2022-12-14T01:11:40.123Z,12.95
2022-12-14T01:14:09.136Z,11.63
2022-12-14T01:16:37.522Z,14.20
2022-12-14T01:19:06.367Z,14.40
2022-12-14T01:21:35.269Z,16.10
2022-12-14T01:24:06.139Z,12.93
2022-12-14T01:26:39.522Z,13.07
2022-12-14T01:29:08.997Z,14.80
2022-12-14T01:31:39.254Z,12.53
2022-12-14T01:34:08.273Z,11.98
2022-12-14T01:36:38.036Z,12.40
2022-12-14T01:39:09.508Z,13.43
2022-12-14T01:41:39.743Z,16.00
2022-12-14T01:44:41.203Z,11.23
2022-12-14T01:47:18.497Z,10.60
2022-12-14T01:49:50.994Z,11.23
2022-12-14T01:52:23.110Z,13.30
2022-12-14T01:54:59.625Z,11.40
2022-12-14T01:57:31.582Z,11.18
2022-12-14T02:00:05.341Z,11.25
2022-12-14T02:02:37.262Z,13.68
2022-12-14T02:05:08.881Z,9.55
2022-12-14T02:07:40.022Z,12.88
2022-12-14T02:10:11.738Z,11.90
2022-12-14T02:12:43.928Z,11.55
2022-12-14T02:15:13.768Z,12.23
2022-12-14T02:17:43.992Z,10.13
2022-12-14T02:20:14.152Z,11.90
2022-12-14T02:23:11.221Z,11.98
2022-12-14T02:26:27.363Z,11.02
2022-12-14T02:29:26.579Z,16.40
2022-12-14T02:32:05.683Z,10.35
2022-12-14T02:34:46.694Z,11.27
2022-12-14T02:37:23.446Z,11.23
2022-12-14T02:39:59.301Z,10.93
2022-12-14T02:42:36.219Z,11.70
2022-12-14T02:45:12.061Z,10.60
2022-12-14T02:47:49.925Z,11.40
2022-12-14T02:50:23.909Z,12.63
2022-12-14T02:53:02.784Z,11.15
2022-12-14T02:55:36.406Z,12.90
2022-12-14T02:58:07.678Z,10.40
2022-12-14T03:00:39.347Z,8.20
2022-12-14T03:03:08.149Z,11.95
2022-12-14T03:05:37.187Z,10.80
2022-12-14T03:08:08.027Z,9.93
2022-12-14T03:10:40.075Z,10.70
2022-12-14T03:13:16.692Z,11.10
2022-12-14T03:15:49.875Z,10.05
2022-12-14T03:18:20.834Z,9.98
2022-12-14T03:20:53.347Z,9.35
2022-12-14T03:23:25.308Z,9.90
2022-12-14T03:26:00.176Z,12.90
2022-12-14T03:28:33.934Z,12.07
2022-12-14T03:31:07.081Z,16.42
2022-12-14T03:33:37.620Z,14.02
2022-12-14T03:36:12.114Z,10.48
2022-12-14T03:38:44.179Z,10.23
2022-12-14T03:41:20.263Z,11.10
2022-12-14T03:44:03.894Z,8.85
2022-12-14T03:46:42.592Z,11.48
2022-12-14T03:49:20.776Z,9.15
2022-12-14T03:51:59.133Z,9.90
2022-12-14T03:54:38.482Z,11.52
2022-12-14T03:57:13.584Z,10.93
2022-12-14T03:59:53.870Z,8.90
2022-12-14T04:02:28.549Z,8.13
2022-12-14T04:05:03.193Z,9.88
2022-12-14T04:07:37.614Z,10.57
2022-12-14T04:10:32.173Z,7.95
2022-12-14T04:13:31.072Z,10.82
2022-12-14T04:16:23.211Z,9.10
2022-12-14T04:19:00.430Z,10.55
2022-12-14T04:21:38.525Z,10.35
2022-12-14T04:24:31.073Z,11.65
2022-12-14T04:27:06.464Z,9.13
2022-12-14T04:29:51.581Z,9.95
2022-12-14T04:32:24.363Z,9.77
2022-12-14T04:34:58.872Z,8.80
2022-12-14T04:37:29.919Z,12.43
2022-12-14T04:40:02.997Z,12.93
2022-12-14T04:42:35.646Z,12.43
2022-12-14T04:45:09.319Z,8.82
2022-12-14T04:47:43.412Z,8.88
2022-12-14T04:50:18.834Z,12.40
2022-12-14T04:52:52.051Z,16.60
2022-12-14T04:55:28.858Z,11.05
2022-12-14T04:58:00.083Z,13.63
2022-12-14T05:00:31.476Z,14.18
2022-12-14T05:03:18.452Z,14.13
2022-12-14T05:05:55.890Z,11.48
2022-12-14T05:08:37.080Z,10.50
2022-12-14T05:11:41.346Z,8.75
2022-12-14T05:14:03.068Z,10.48
2022-12-14T05:16:31.420Z,9.17
2022-12-14T05:18:59.743Z,11.15
2022-12-14T05:21:47.382Z,9.38
2022-12-14T05:24:16.139Z,11.18
2022-12-14T05:26:44.640Z,9.90
2022-12-14T05:29:13.642Z,14.32
2022-12-14T05:31:41.964Z,10.85
2022-12-14T05:34:17.352Z,8.43
2022-12-14T05:36:47.011Z,7.50
2022-12-14T05:39:16.460Z,9.95
2022-12-14T05:41:45.480Z,12.57
2022-12-14T05:44:13.668Z,11.80
2022-12-14T05:46:41.879Z,11.30
2022-12-14T05:49:10.713Z,9.30
2022-12-14T05:51:38.904Z,9.27
2022-12-14T05:54:08.754Z,10.50
2022-12-14T05:56:37.192Z,10.90
2022-12-14T05:59:05.332Z,10.77
2022-12-14T06:01:33.729Z,10.93
2022-12-14T06:04:01.978Z,12.40
2022-12-14T06:06:30.330Z,10.18
2022-12-14T06:08:58.601Z,11.03
2022-12-14T06:11:28.196Z,10.20
2022-12-14T06:13:56.380Z,11.30
2022-12-14T06:16:26.656Z,10.93
2022-12-14T06:18:57.226Z,12.83
2022-12-14T06:21:28.354Z,9.80
2022-12-14T06:23:57.441Z,12.27
2022-12-14T06:26:28.397Z,12.50
2022-12-14T06:28:57.406Z,15.05
2022-12-14T06:31:27.547Z,12.40
2022-12-14T06:33:56.518Z,12.65
2022-12-14T06:36:27.093Z,12.60
2022-12-14T06:38:55.717Z,14.20
2022-12-14T06:41:25.386Z,10.23
2022-12-14T06:43:55.079Z,8.02
2022-12-14T06:46:24.545Z,9.18
2022-12-14T06:48:53.800Z,9.70
2022-12-14T06:51:23.134Z,9.32
2022-12-14T06:53:52.905Z,10.10
2022-12-14T06:56:22.406Z,9.60
2022-12-14T06:58:51.090Z,11.50
2022-12-14T07:01:22.529Z,10.45
2022-12-14T07:03:53.437Z,8.80
2022-12-14T07:06:22.314Z,9.73
2022-12-14T07:08:53.537Z,12.85
2022-12-14T07:11:21.782Z,9.20
2022-12-14T07:13:50.090Z,9.30
2022-12-14T07:16:21.678Z,9.70
2022-12-14T07:18:50.593Z,9.48
2022-12-14T07:21:20.671Z,13.00
2022-12-14T07:23:52.260Z,11.50
2022-12-14T07:26:22.416Z,10.50
2022-12-14T07:28:51.670Z,10.95
2022-12-14T07:31:24.060Z,13.97
2022-12-14T07:33:54.320Z,11.35
2022-12-14T07:36:23.887Z,11.95
2022-12-14T07:38:52.922Z,13.30
2022-12-14T07:41:23.596Z,11.20
2022-12-14T07:43:54.474Z,14.35
2022-12-14T07:46:26.145Z,13.35
2022-12-14T07:48:55.706Z,14.07
2022-12-14T07:51:26.046Z,12.85
2022-12-14T07:53:55.694Z,11.23
2022-12-14T07:56:25.954Z,11.50
2022-12-14T07:58:55.595Z,8.60
2022-12-14T08:01:27.690Z,10.15
2022-12-14T08:03:57.410Z,10.30
2022-12-14T08:06:27.913Z,10.13
2022-12-14T08:08:56.863Z,7.95
2022-12-14T08:11:26.219Z,9.73
2022-12-14T08:13:54.925Z,10.83
2022-12-14T08:16:25.195Z,11.07
2022-12-14T08:18:54.975Z,10.07
2022-12-14T08:21:25.490Z,16.17
2022-12-14T08:23:54.925Z,11.43
2022-12-14T08:26:30.034Z,11.23
2022-12-14T08:29:01.688Z,9.15
2022-12-14T08:31:31.812Z,11.68
2022-12-14T08:34:01.207Z,8.50
2022-12-14T08:36:32.647Z,13.27
2022-12-14T08:39:02.674Z,12.00
2022-12-14T08:41:31.483Z,13.40
2022-12-14T08:44:01.507Z,27.50
2022-12-14T08:46:32.956Z,21.50
2022-12-14T08:49:01.721Z,22.80
2022-12-14T08:51:30.374Z,19.33
2022-12-14T08:53:59.036Z,17.80
2022-12-14T08:56:28.690Z,23.52
2022-12-14T08:58:57.993Z,24.85
2022-12-14T09:01:32.752Z,15.80
2022-12-14T09:04:06.235Z,20.67
2022-12-14T09:06:35.953Z,17.37
2022-12-14T09:09:04.670Z,17.70
2022-12-14T09:11:33.062Z,17.50
2022-12-14T09:14:02.916Z,17.73
2022-12-14T09:16:31.316Z,21.17
2022-12-14T09:18:59.505Z,21.70
2022-12-14T09:21:29.599Z,15.32
2022-12-14T09:23:59.827Z,14.18
2022-12-14T09:26:29.776Z,15.57
2022-12-14T09:28:59.017Z,13.07
2022-12-14T09:31:29.170Z,11.02
2022-12-14T09:33:57.874Z,13.73
2022-12-14T09:36:29.166Z,10.80
2022-12-14T09:38:58.298Z,14.90
2022-12-14T09:41:43.281Z,14.40
2022-12-14T09:44:19.470Z,13.75
2022-12-14T09:46:57.775Z,10.27
2022-12-14T09:49:30.731Z,14.85
2022-12-14T09:52:02.522Z,14.15
2022-12-14T09:54:34.333Z,10.90
2022-12-14T09:57:09.571Z,13.27
2022-12-14T09:59:38.011Z,10.60
2022-12-14T10:02:30.938Z,10.98
2022-12-14T10:05:21.421Z,11.15
2022-12-14T10:08:02.545Z,11.10
2022-12-14T10:10:38.349Z,10.00
2022-12-14T10:13:18.855Z,15.18
2022-12-14T10:15:56.019Z,11.48
2022-12-14T10:19:04.317Z,13.32
2022-12-14T10:21:44.455Z,9.70
2022-12-14T10:24:20.977Z,13.40
2022-12-14T10:26:52.920Z,12.60
2022-12-14T10:29:30.754Z,10.90
2022-12-14T10:32:08.520Z,13.15
2022-12-14T10:34:38.338Z,14.20
2022-12-14T10:37:25.577Z,9.73
2022-12-14T10:40:12.987Z,15.18
2022-12-14T10:42:51.693Z,19.27
2022-12-14T10:45:40.394Z,11.50
2022-12-14T10:48:40.934Z,17.65
2022-12-14T10:51:12.650Z,16.00
2022-12-14T10:53:45.863Z,12.20
2022-12-14T10:56:20.987Z,19.00
2022-12-14T10:59:30.118Z,11.63
2022-12-14T11:02:08.115Z,14.75
2022-12-14T11:04:40.192Z,13.95
2022-12-14T11:07:10.196Z,14.52
2022-12-14T11:09:40.285Z,14.40
2022-12-14T11:12:18.909Z,14.15
2022-12-14T11:14:59.408Z,11.40
2022-12-14T11:17:34.299Z,13.98
2022-12-14T11:20:16.436Z,12.07
2022-12-14T11:22:46.534Z,17.70
2022-12-14T11:25:40.851Z,13.63
2022-12-14T11:28:36.590Z,13.00
2022-12-14T11:31:09.226Z,12.00
2022-12-14T11:33:40.726Z,17.55
2022-12-14T11:36:09.952Z,12.95
2022-12-14T11:38:38.215Z,13.85
2022-12-14T11:41:11.317Z,12.80
2022-12-14T11:43:41.379Z,14.48
2022-12-14T11:46:09.717Z,12.50
2022-12-14T11:48:51.593Z,16.13
2022-12-14T11:51:19.927Z,14.90
2022-12-14T11:54:03.666Z,15.93
2022-12-14T11:56:32.011Z,13.60
2022-12-14T11:59:01.649Z,13.50
2022-12-14T12:01:29.941Z,17.43
2022-12-14T12:04:00.737Z,12.27
2022-12-14T12:06:30.921Z,16.17
2022-12-14T12:09:01.702Z,15.85
2022-12-14T12:11:33.111Z,15.57
2022-12-14T12:14:05.203Z,16.33
2022-12-14T12:16:35.528Z,17.08
2022-12-14T12:19:12.491Z,13.10
2022-12-14T12:21:43.073Z,13.05
2022-12-14T12:24:18.063Z,18.05
2022-12-14T12:26:51.196Z,13.27
2022-12-14T12:29:27.886Z,13.20
2022-12-14T12:31:59.814Z,15.13
2022-12-14T12:34:32.635Z,13.32
2022-12-14T12:37:25.755Z,15.43
2022-12-14T12:40:00.081Z,12.90
2022-12-14T12:42:38.000Z,16.05
2022-12-14T12:45:14.929Z,12.85
2022-12-14T12:47:47.958Z,12.27
2022-12-14T12:50:18.375Z,11.10
2022-12-14T12:53:02.451Z,14.07
2022-12-14T12:55:35.641Z,10.50
2022-12-14T12:58:09.805Z,15.10
2022-12-14T13:00:42.467Z,13.77
2022-12-14T13:03:17.043Z,13.85
2022-12-14T13:05:48.271Z,13.43
2022-12-14T13:08:24.570Z,15.10
2022-12-14T13:13:52.698Z,15.95
2022-12-14T13:16:27.862Z,15.82
2022-12-14T13:19:48.792Z,13.10
2022-12-14T13:21:54.641Z,18.33
2022-12-14T13:24:25.053Z,12.53
2022-12-14T13:27:22.973Z,23.73
2022-12-14T13:30:05.246Z,12.10
2022-12-14T13:32:49.821Z,13.60
2022-12-14T13:35:31.030Z,14.03
2022-12-14T13:38:13.370Z,14.88
2022-12-14T13:41:02.752Z,14.50
2022-12-14T13:43:48.742Z,12.95
2022-12-14T13:46:22.684Z,10.68
2022-12-14T13:48:54.483Z,13.63
2022-12-14T13:51:29.403Z,16.60
2022-12-14T13:54:00.230Z,13.70
2022-12-14T13:56:33.586Z,16.52
2022-12-14T13:59:05.277Z,21.30
2022-12-14T14:01:58.373Z,21.98
2022-12-14T14:04:30.843Z,20.07
2022-12-14T14:07:38.205Z,17.75
2022-12-14T14:10:07.870Z,20.00
2022-12-14T14:12:45.909Z,17.97
2022-12-14T14:15:51.931Z,19.80
2022-12-14T14:18:29.383Z,20.73
2022-12-14T14:21:42.728Z,13.13
2022-12-14T14:24:22.813Z,16.53
2022-12-14T14:27:02.109Z,13.88
2022-12-14T14:29:31.206Z,13.25
2022-12-14T14:32:01.935Z,12.82
2022-12-14T14:34:41.479Z,13.07
2022-12-14T14:37:27.215Z,13.68
2022-12-14T14:40:16.671Z,14.80
2022-12-14T14:42:52.506Z,11.38
2022-12-14T14:45:32.195Z,12.88
2022-12-14T14:48:03.188Z,12.80
2022-12-14T14:50:36.352Z,13.85
2022-12-14T14:53:28.754Z,15.48
2022-12-14T14:56:45.042Z,12.57
2022-12-14T14:59:40.317Z,15.93
2022-12-14T15:02:40.625Z,13.75
2022-12-14T15:08:20.740Z,13.15
2022-12-14T15:10:51.025Z,13.80
2022-12-14T15:13:24.513Z,13.10
2022-12-14T15:15:56.429Z,17.15
2022-12-14T15:18:26.917Z,13.15
2022-12-14T15:20:59.215Z,14.45
2022-12-14T15:23:34.446Z,15.53
2022-12-14T15:26:05.019Z,16.50
2022-12-14T15:28:33.250Z,15.98
2022-12-14T15:31:01.583Z,16.90
2022-12-14T15:33:34.347Z,17.40
2022-12-14T15:36:08.122Z,20.83
2022-12-14T15:38:38.510Z,17.88
2022-12-14T15:41:13.311Z,14.35
2022-12-14T15:43:45.944Z,18.20
2022-12-14T15:46:18.464Z,20.33
2022-12-14T15:48:47.264Z,15.85
2022-12-14T15:51:19.380Z,18.98
2022-12-14T15:53:51.516Z,15.65
2022-12-14T15:56:27.298Z,19.25
2022-12-14T15:58:57.678Z,16.05
2022-12-14T16:01:28.683Z,17.15
2022-12-14T16:03:59.594Z,16.77
2022-12-14T16:06:30.686Z,20.02
2022-12-14T16:09:05.698Z,17.55
2022-12-14T16:11:38.636Z,18.60
2022-12-14T16:14:18.454Z,21.30
2022-12-14T16:16:47.392Z,17.23
2022-12-14T16:19:27.940Z,21.48
2022-12-14T16:22:14.565Z,19.23
2022-12-14T16:25:17.833Z,17.77
2022-12-14T16:27:49.831Z,25.53
2022-12-14T16:30:22.993Z,17.45
2022-12-14T16:32:54.367Z,25.58
2022-12-14T16:35:24.719Z,25.08
2022-12-14T16:37:55.697Z,23.05
2022-12-14T16:40:34.670Z,29.60
2022-12-14T16:43:04.057Z,30.90
2022-12-14T16:46:02.000Z,30.58
2022-12-14T16:48:30.935Z,28.40
2022-12-14T16:52:05.880Z,26.08
2022-12-14T16:54:27.091Z,27.65
2022-12-14T16:57:01.368Z,33.28
2022-12-14T16:59:37.994Z,24.73
2022-12-14T17:02:10.393Z,21.60
2022-12-14T17:04:43.419Z,24.70
2022-12-14T17:07:15.814Z,45.75
2022-12-14T17:09:45.095Z,44.75
2022-12-14T17:12:19.286Z,32.63
2022-12-14T17:14:49.838Z,57.05
2022-12-14T17:17:23.132Z,76.82
2022-12-14T17:19:51.510Z,72.35
2022-12-14T17:22:25.671Z,56.22
2022-12-14T17:24:53.977Z,64.47
2022-12-14T17:27:26.694Z,57.95
2022-12-14T17:29:57.258Z,58.60
2022-12-14T17:32:30.650Z,34.63
2022-12-14T17:34:59.295Z,42.83
2022-12-14T17:37:34.151Z,67.63
2022-12-14T17:40:05.660Z,72.25
2022-12-14T17:42:35.593Z,56.85
2022-12-14T17:45:04.135Z,50.40
2022-12-14T17:47:32.318Z,45.35
2022-12-14T17:50:00.604Z,43.88
2022-12-14T17:52:31.853Z,41.03
2022-12-14T17:55:00.419Z,43.08
2022-12-14T17:57:28.731Z,46.67
2022-12-14T18:00:12.250Z,46.38
2022-12-14T18:02:40.920Z,38.22
2022-12-14T18:05:17.908Z,33.50
2022-12-14T18:07:46.195Z,33.38
2022-12-14T18:10:18.956Z,31.80
2022-12-14T18:12:47.282Z,35.72
2022-12-14T18:15:22.513Z,34.67
2022-12-14T18:17:51.690Z,33.33
2022-12-14T18:20:21.169Z,33.72
2022-12-14T18:22:51.173Z,31.38
2022-12-14T18:25:30.200Z,32.28
2022-12-14T18:27:58.942Z,36.88
2022-12-14T18:30:34.902Z,31.70
2022-12-14T18:33:07.336Z,37.83
2022-12-14T18:35:37.177Z,33.95
2022-12-14T18:38:05.418Z,41.10
2022-12-14T18:40:33.660Z,37.42
2022-12-14T18:43:01.895Z,34.15
2022-12-14T18:45:33.762Z,40.88
2022-12-14T18:48:02.159Z,52.28
2022-12-14T18:50:31.296Z,36.65
2022-12-14T18:52:59.621Z,40.92
2022-12-14T18:55:30.120Z,40.53
2022-12-14T18:58:01.933Z,43.45
2022-12-14T19:00:33.874Z,39.85
2022-12-14T19:03:03.965Z,40.88
2022-12-14T19:05:33.176Z,45.08
2022-12-14T19:08:01.854Z,43.08
2022-12-14T19:10:32.133Z,45.13
2022-12-14T19:13:00.611Z,44.25
2022-12-14T19:15:32.109Z,42.10
2022-12-14T19:18:00.617Z,39.63
2022-12-14T19:20:29.925Z,69.35
2022-12-14T19:22:58.703Z,96.30
2022-12-14T19:25:26.980Z,80.25
2022-12-14T19:30:46.114Z,65.45
2022-12-14T19:33:14.757Z,63.17
2022-12-14T19:35:43.630Z,45.78
2022-12-14T19:38:16.243Z,51.90
2022-12-14T19:40:46.504Z,47.50
2022-12-14T19:43:14.792Z,48.72
2022-12-14T19:45:44.570Z,53.75
2022-12-14T19:48:14.213Z,50.80
2022-12-14T19:50:42.618Z,43.30
2022-12-14T19:53:10.828Z,51.10
2022-12-14T19:55:39.229Z,51.88
2022-12-14T19:58:07.366Z,47.60
2022-12-14T20:00:35.653Z,55.38
2022-12-14T20:03:04.155Z,44.95
2022-12-14T20:05:33.946Z,46.83
2022-12-14T20:08:02.279Z,47.25
2022-12-14T20:10:30.536Z,43.97
2022-12-14T20:12:58.699Z,44.63
2022-12-14T20:15:27.074Z,45.20
2022-12-14T20:17:55.267Z,43.90
2022-12-14T20:20:23.869Z,43.30
2022-12-14T20:22:53.443Z,48.63
2022-12-14T20:25:21.810Z,49.85
2022-12-14T20:27:52.167Z,54.45
2022-12-14T20:30:20.532Z,55.88
2022-12-14T20:32:49.287Z,50.42
2022-12-14T20:35:18.762Z,56.00
2022-12-14T20:37:47.299Z,55.70
2022-12-14T20:40:17.045Z,53.20
2022-12-14T20:42:45.236Z,49.33
2022-12-14T20:45:13.657Z,49.33
2022-12-14T20:47:41.869Z,47.17
2022-12-14T20:50:10.250Z,49.10
2022-12-14T20:52:38.706Z,47.10
2022-12-14T20:55:07.458Z,50.28
2022-12-14T20:57:37.072Z,45.08
2022-12-14T21:00:06.636Z,49.22
2022-12-14T21:02:34.999Z,44.25
2022-12-14T21:05:03.383Z,50.85
2022-12-14T21:07:32.710Z,48.25
2022-12-14T21:10:00.942Z,45.53
2022-12-14T21:12:29.257Z,43.67
2022-12-14T21:14:59.461Z,42.35
2022-12-14T21:17:30.358Z,40.33
2022-12-14T21:19:58.947Z,39.85
2022-12-14T21:22:28.871Z,45.35
2022-12-14T21:25:06.037Z,40.72
2022-12-14T21:27:38.164Z,43.45
2022-12-14T21:30:11.758Z,42.03
2022-12-14T21:32:40.087Z,42.60
2022-12-14T21:35:08.931Z,40.10
2022-12-14T21:37:39.062Z,40.13
2022-12-14T21:40:28.878Z,33.50
2022-12-14T21:42:56.099Z,35.95
2022-12-14T21:45:25.705Z,41.47
2022-12-14T21:47:54.081Z,41.20
2022-12-14T21:50:22.337Z,41.05
2022-12-14T21:52:50.556Z,43.50
2022-12-14T21:55:18.797Z,43.22
2022-12-14T21:58:04.228Z,45.10
2022-12-14T22:00:33.775Z,36.88
2022-12-14T22:03:02.326Z,38.85
2022-12-14T22:05:30.860Z,40.88
2022-12-14T22:07:59.060Z,39.35
2022-12-14T22:10:27.316Z,40.58
2022-12-14T22:12:55.563Z,38.78
2022-12-14T22:15:23.953Z,36.00
2022-12-14T22:17:53.537Z,35.95
2022-12-14T22:20:21.741Z,35.72
2022-12-14T22:22:49.910Z,33.70
2022-12-14T22:25:18.224Z,35.55
2022-12-14T22:27:49.691Z,31.05
2022-12-14T22:30:19.107Z,48.40
2022-12-14T22:32:47.871Z,30.30
2022-12-14T22:35:18.170Z,30.70
2022-12-14T22:37:46.439Z,28.00
2022-12-14T22:40:14.737Z,25.60
2022-12-14T22:42:43.038Z,24.30
2022-12-14T22:45:11.653Z,27.30
2022-12-14T22:47:39.870Z,22.77
2022-12-14T22:50:09.145Z,26.55
2022-12-14T22:52:38.783Z,25.40
2022-12-14T22:55:07.840Z,23.55
2022-12-14T22:57:41.749Z,29.52
2022-12-14T23:00:15.879Z,24.65
2022-12-14T23:02:48.107Z,26.42
2022-12-14T23:05:17.660Z,19.85
2022-12-14T23:07:47.505Z,23.58
2022-12-14T23:10:33.374Z,20.42
2022-12-14T23:13:18.893Z,22.20
2022-12-14T23:16:04.579Z,22.50
2022-12-14T23:18:50.179Z,23.33
2022-12-14T23:21:35.946Z,20.33
2022-12-14T23:24:24.510Z,23.98
2022-12-14T23:27:10.208Z,22.63
2022-12-14T23:29:56.138Z,19.50
2022-12-14T23:32:41.977Z,21.02
2022-12-14T23:35:27.622Z,22.08
2022-12-14T23:38:13.141Z,22.92
2022-12-14T23:41:00.107Z,22.65
2022-12-14T23:43:45.736Z,25.33
2022-12-14T23:46:31.250Z,21.60
2022-12-14T23:49:16.763Z,22.08
2022-12-14T23:52:02.676Z,19.85
2022-12-14T23:54:48.653Z,20.60
2022-12-14T23:57:36.278Z,18.88
